VEG YSBK-YSBK
Flight info
| Callsign | VEG |
|---|---|
| Flight time | 0h 14m |
| Altitude | 1000 |
| Route | CCTS |
| Aircraft | RV10/L-G/C |
Departure
| Time | 2026-04-25 08:32 |
|---|---|
| Airport | Sydney Bankstown Airport (YSBK) |
Arrival
| Time | 2026-04-25 08:47 |
|---|---|
| Airport | Sydney Bankstown Airport (YSBK) |
| Time | Latitude | Longitude | Altitude | Speed | Heading |
|---|---|---|---|---|---|
| 2026-04-25 08:24 | -33.91626 | 150.99487 | 70 ft | 0 kts | 81° |
| 2026-04-25 08:24 | -33.91626 | 150.99490 | 70 ft | 0 kts | 78° |
| 2026-04-25 08:26 | -33.91602 | 150.99524 | 72 ft | 8 kts | 84° |
| 2026-04-25 08:26 | -33.91660 | 150.99677 | 72 ft | 21 kts | 148° |
| 2026-04-25 08:26 | -33.91875 | 150.99641 | 59 ft | 25 kts | 194° |
| 2026-04-25 08:27 | -33.91925 | 150.99623 | 57 ft | 1 kts | 186° |
| 2026-04-25 08:27 | -33.91930 | 150.99623 | 57 ft | 0 kts | 182° |
| 2026-04-25 08:27 | -33.91932 | 150.99626 | 57 ft | 0 kts | 33° |
| 2026-04-25 08:27 | -33.91866 | 150.99640 | 60 ft | 17 kts | 346° |
| 2026-04-25 08:28 | -33.91913 | 150.99554 | 56 ft | 23 kts | 244° |
| 2026-04-25 08:28 | -33.92001 | 150.99278 | 40 ft | 35 kts | 252° |
| 2026-04-25 08:28 | -33.92075 | 150.99052 | 29 ft | 20 kts | 210° |
| 2026-04-25 08:28 | -33.92100 | 150.99034 | 28 ft | 0 kts | 225° |
| 2026-04-25 08:29 | -33.92167 | 150.99089 | 28 ft | 21 kts | 124° |
| 2026-04-25 08:29 | -33.92279 | 150.99283 | 32 ft | 0 kts | 140° |
| 2026-04-25 08:29 | -33.92182 | 150.99118 | 28 ft | 45 kts | 304° |
| 2026-04-25 08:29 | -33.92060 | 150.98894 | 26 ft | 15 kts | 292° |
| 2026-04-25 08:30 | -33.91983 | 150.98761 | 25 ft | 22 kts | 305° |
| 2026-04-25 08:30 | -33.91964 | 150.98702 | 24 ft | 1 kts | 210° |
| 2026-04-25 08:30 | -33.91969 | 150.98697 | 24 ft | 0 kts | 236° |
| 2026-04-25 08:30 | -33.91973 | 150.98692 | 24 ft | 0 kts | 208° |
| 2026-04-25 08:31 | -33.92075 | 150.98781 | 22 ft | 56 kts | 122° |
| 2026-04-25 08:31 | -33.92420 | 150.99394 | 36 ft | 113 kts | 122° |
| 2026-04-25 08:31 | -33.92509 | 151.00052 | 616 ft | 92 kts | 320° |
| 2026-04-25 08:31 | -33.91998 | 150.99242 | 482 ft | 144 kts | 306° |
| 2026-04-25 08:32 | -33.91262 | 150.98267 | 442 ft | 168 kts | 317° |
| 2026-04-25 08:32 | -33.90805 | 150.97398 | 850 ft | 93 kts | 229° |
| 2026-04-25 08:32 | -33.91360 | 150.97452 | 637 ft | 94 kts | 115° |
| 2026-04-25 08:32 | -33.91703 | 150.98106 | 303 ft | 88 kts | 127° |
| 2026-04-25 08:33 | -33.92034 | 150.98689 | 47 ft | 82 kts | 122° |
| 2026-04-25 08:33 | -33.92304 | 150.99173 | 27 ft | 75 kts | 120° |
| 2026-04-25 08:33 | -33.92554 | 150.99873 | 240 ft | 101 kts | 50° |
| 2026-04-25 08:33 | -33.91909 | 150.99486 | 318 ft | 137 kts | 306° |
| 2026-04-25 08:34 | -33.91246 | 150.98680 | 346 ft | 115 kts | 327° |
| 2026-04-25 08:34 | -33.90840 | 150.98106 | 486 ft | 100 kts | 261° |
| 2026-04-25 08:34 | -33.91376 | 150.97704 | 568 ft | 122 kts | 183° |
| 2026-04-25 08:34 | -33.91915 | 150.98485 | 144 ft | 128 kts | 126° |
| 2026-04-25 08:35 | -33.92333 | 150.99228 | 32 ft | 88 kts | 123° |
| 2026-04-25 08:35 | -33.92699 | 150.99892 | 180 ft | 105 kts | 114° |
| 2026-04-25 08:35 | -33.92254 | 150.99857 | 368 ft | 129 kts | 304° |
| 2026-04-25 08:35 | -33.91702 | 150.98824 | 362 ft | 159 kts | 303° |
| 2026-04-25 08:36 | -33.91003 | 150.97716 | 456 ft | 167 kts | 295° |
| 2026-04-25 08:36 | -33.91576 | 150.97845 | 598 ft | 123 kts | 117° |
| 2026-04-25 08:36 | -33.92015 | 150.98673 | 29 ft | 105 kts | 125° |
| 2026-04-25 08:36 | -33.92363 | 150.99292 | 30 ft | 93 kts | 126° |
| 2026-04-25 08:37 | -33.92551 | 151.00078 | 193 ft | 116 kts | 39° |
| 2026-04-25 08:37 | -33.92052 | 151.00008 | 367 ft | 120 kts | 299° |
| 2026-04-25 08:37 | -33.91361 | 150.99359 | 534 ft | 141 kts | 321° |
| 2026-04-25 08:37 | -33.90710 | 150.98468 | 800 ft | 149 kts | 307° |
| 2026-04-25 08:38 | -33.90681 | 150.97913 | 1389 ft | 85 kts | 184° |
| 2026-04-25 08:38 | -33.91288 | 150.97513 | 771 ft | 90 kts | 203° |
| 2026-04-25 08:38 | -33.91601 | 150.97949 | 376 ft | 108 kts | 117° |
| 2026-04-25 08:38 | -33.92007 | 150.98647 | 43 ft | 95 kts | 121° |
| 2026-04-25 08:39 | -33.92353 | 150.99275 | 30 ft | 106 kts | 130° |
| 2026-04-25 08:39 | -33.92776 | 150.99997 | 438 ft | 98 kts | 123° |
| 2026-04-25 08:39 | -33.92592 | 151.00467 | 802 ft | 106 kts | 14° |
| 2026-04-25 08:39 | -33.91723 | 151.00690 | 809 ft | 141 kts | 14° |
| 2026-04-25 08:40 | -33.91009 | 151.00201 | 1211 ft | 139 kts | 279° |
| 2026-04-25 08:40 | -33.90670 | 150.98845 | 758 ft | 188 kts | 294° |
| 2026-04-25 08:40 | -33.90646 | 150.97739 | 1466 ft | 116 kts | 217° |
| 2026-04-25 08:40 | -33.90789 | 150.96947 | 1271 ft | 105 kts | 288° |
| 2026-04-25 08:41 | -33.90120 | 150.96481 | 1361 ft | 114 kts | 4° |
| 2026-04-25 08:41 | -33.90306 | 150.96921 | 1197 ft | 149 kts | 166° |
| 2026-04-25 08:41 | -33.91309 | 150.97401 | 625 ft | 146 kts | 136° |
| 2026-04-25 08:41 | -33.91803 | 150.98276 | 162 ft | 117 kts | 122° |
| 2026-04-25 08:42 | -33.92189 | 150.98969 | 24 ft | 69 kts | 124° |
| 2026-04-25 08:42 | -33.92534 | 150.99597 | 104 ft | 101 kts | 123° |
| 2026-04-25 08:42 | -33.92916 | 151.00284 | 542 ft | 94 kts | 74° |
| 2026-04-25 08:42 | -33.92463 | 151.00679 | 853 ft | 102 kts | 46° |
| 2026-04-25 08:43 | -33.91899 | 151.01334 | 1055 ft | 123 kts | 45° |
| 2026-04-25 08:43 | -33.91202 | 151.02122 | 1128 ft | 147 kts | 45° |
| 2026-04-25 08:43 | -33.90483 | 151.02205 | 1087 ft | 158 kts | 301° |
| 2026-04-25 08:43 | -33.89883 | 151.01074 | 1246 ft | 168 kts | 300° |
| 2026-04-25 08:44 | -33.89267 | 150.99793 | 1231 ft | 182 kts | 301° |
| 2026-04-25 08:44 | -33.88680 | 150.98549 | 1468 ft | 144 kts | 298° |
| 2026-04-25 08:44 | -33.88387 | 150.97586 | 1322 ft | 112 kts | 273° |
| 2026-04-25 08:44 | -33.88559 | 150.96727 | 992 ft | 101 kts | 226° |
| 2026-04-25 08:45 | -33.89087 | 150.96333 | 765 ft | 89 kts | 198° |
| 2026-04-25 08:45 | -33.89610 | 150.96039 | 686 ft | 84 kts | 199° |
| 2026-04-25 08:45 | -33.90157 | 150.95743 | 640 ft | 80 kts | 197° |
| 2026-04-25 08:45 | -33.90512 | 150.95834 | 878 ft | 72 kts | 115° |
| 2026-04-25 08:46 | -33.90775 | 150.96518 | 778 ft | 122 kts | 125° |
| 2026-04-25 08:46 | -33.91336 | 150.97447 | 506 ft | 147 kts | 122° |
| 2026-04-25 08:46 | -33.91849 | 150.98363 | 96 ft | 117 kts | 123° |
| 2026-04-25 08:46 | -33.92220 | 150.99028 | 25 ft | 63 kts | 118° |
| 2026-04-25 08:47 | -33.92378 | 150.99313 | 30 ft | 16 kts | 122° |
| 2026-04-25 08:47 | -33.92375 | 150.99393 | 33 ft | 6 kts | 56° |
| 2026-04-25 08:47 | -33.92371 | 150.99403 | 33 ft | 0 kts | 68° |
| 2026-04-25 08:49 | -33.92370 | 150.99403 | 33 ft | 0 kts | 68° |
| 2026-04-25 08:49 | -33.92370 | 150.99405 | 33 ft | 0 kts | 66° |
| 2026-04-25 08:49 | -33.92369 | 150.99406 | 33 ft | 0 kts | 70° |
| 2026-04-25 08:50 | -33.92368 | 150.99409 | 33 ft | 0 kts | 68° |
| 2026-04-25 08:50 | -33.92348 | 150.99405 | 34 ft | 14 kts | 314° |
| 2026-04-25 08:50 | -33.92252 | 150.99239 | 31 ft | 23 kts | 304° |
| 2026-04-25 08:50 | -33.92175 | 150.99141 | 29 ft | 9 kts | 70° |
| 2026-04-25 08:51 | -33.92155 | 150.99222 | 32 ft | 11 kts | 70° |
| 2026-04-25 08:51 | -33.92135 | 150.99293 | 36 ft | 9 kts | 70° |
| 2026-04-25 08:51 | -33.92105 | 150.99397 | 41 ft | 5 kts | 52° |
| 2026-04-25 08:51 | -33.92067 | 150.99406 | 42 ft | 2 kts | 332° |
| 2026-04-25 08:52 | -33.91983 | 150.99368 | 45 ft | 5 kts | 24° |
| 2026-04-25 08:52 | -33.91930 | 150.99510 | 53 ft | 21 kts | 70° |
| 2026-04-25 08:52 | -33.91851 | 150.99603 | 60 ft | 10 kts | 48° |
| 2026-04-25 08:52 | -33.91811 | 150.99654 | 62 ft | 9 kts | 16° |
| 2026-04-25 08:53 | -33.91684 | 150.99684 | 71 ft | 17 kts | 1° |
| 2026-04-25 08:53 | -33.91590 | 150.99516 | 73 ft | 25 kts | 296° |
| 2026-04-25 08:53 | -33.91586 | 150.99489 | 72 ft | 0 kts | 99° |
| 2026-04-25 08:55 | -33.91587 | 150.99493 | 72 ft | 1 kts | 97° |
| 2026-04-25 08:55 | -33.91587 | 150.99498 | 72 ft | 0 kts | 106° |